Time;durP1;ratioP1;P1;durP2;ratioP2;P2;SDS_P1;SDS_P2;PMS_P1;PMS_P2;Temp;Humidity;BMP_temperature;BMP_pressure;BME280_temperature;BME280_humidity;BME280_pressure;Samples;Min_cycle;Max_cycle;Signal;HPM_P1;HPM_P2
2023/12/12 00:00:34;;;;;;;1.10;0.40;;;8.80;1.00;;;;;;5144204;27;20434;-62
2023/12/12 00:03:01;;;;;;;1.30;0.40;;;8.80;1.00;;;;;;5156799;27;20431;-61
2023/12/12 00:05:28;;;;;;;1.45;0.40;;;8.80;1.00;;;;;;5140713;27;20865;-61
2023/12/12 00:07:55;;;;;;;1.35;0.50;;;8.80;1.00;;;;;;5135765;27;20783;-62
2023/12/12 00:10:24;;;;;;;1.27;0.47;;;8.80;1.00;;;;;;5134973;27;20414;-61
2023/12/12 00:12:51;;;;;;;1.40;0.35;;;8.80;1.00;;;;;;5136263;27;20437;-61
2023/12/12 00:15:18;;;;;;;1.10;0.40;;;8.70;1.00;;;;;;5135835;27;20482;-61
2023/12/12 00:17:45;;;;;;;1.70;0.50;;;8.70;1.00;;;;;;5152161;27;20590;-61
2023/12/12 00:20:12;;;;;;;1.55;0.50;;;8.70;1.00;;;;;;5155879;27;20845;-61
2023/12/12 00:22:39;;;;;;;1.80;0.50;;;8.70;1.00;;;;;;5156195;27;20409;-61
2023/12/12 00:25:07;;;;;;;1.10;0.40;;;8.70;1.00;;;;;;5139325;27;20414;-61
2023/12/12 00:27:35;;;;;;;2.40;0.40;;;8.70;1.00;;;;;;5135190;27;20431;-61
2023/12/12 00:30:03;;;;;;;1.80;0.30;;;8.70;1.00;;;;;;5134601;27;20480;-61
2023/12/12 00:32:30;;;;;;;1.50;0.40;;;8.70;1.00;;;;;;5135986;27;20437;-62
2023/12/12 00:34:58;;;;;;;1.60;0.40;;;8.70;1.00;;;;;;5134602;27;20427;-62
2023/12/12 00:37:24;;;;;;;2.28;0.40;;;8.70;1.00;;;;;;5134350;27;20418;-62
2023/12/12 00:39:51;;;;;;;1.60;0.40;;;8.80;1.00;;;;;;5156370;27;20762;-62
2023/12/12 00:42:18;;;;;;;0.90;0.40;;;8.80;1.00;;;;;;5148246;27;20833;-62
2023/12/12 00:44:46;;;;;;;0.68;0.40;;;8.90;1.00;;;;;;5134461;27;20479;-62
2023/12/12 00:47:13;;;;;;;3.00;0.40;;;8.90;1.00;;;;;;5134284;27;20506;-62
2023/12/12 00:49:41;;;;;;;2.38;0.40;;;8.90;1.00;;;;;;5133677;27;20419;-63
2023/12/12 00:52:08;;;;;;;1.20;0.40;;;8.90;1.00;;;;;;5133466;28;20858;-62
2023/12/12 00:54:35;;;;;;;2.10;0.40;;;9.00;1.00;;;;;;5134304;28;20514;-60
2023/12/12 00:57:02;;;;;;;1.40;0.30;;;9.00;1.00;;;;;;5133811;28;20418;-61
2023/12/12 00:59:29;;;;;;;0.90;0.40;;;9.00;1.00;;;;;;5134603;28;20436;-61
2023/12/12 01:01:58;;;;;;;1.05;0.30;;;8.90;1.00;;;;;;5134216;28;20880;-61
2023/12/12 01:04:25;;;;;;;3.50;0.40;;;8.90;1.00;;;;;;5118833;28;20414;-62
2023/12/12 01:06:52;;;;;;;1.60;0.40;;;8.90;1.00;;;;;;5133997;28;20728;-61
2023/12/12 01:09:19;;;;;;;1.37;0.33;;;8.90;1.00;;;;;;5137849;27;20836;-61
2023/12/12 01:11:47;;;;;;;0.50;0.30;;;8.90;1.00;;;;;;5155711;27;20429;-61
2023/12/12 01:14:14;;;;;;;1.88;0.30;;;8.90;1.00;;;;;;5154137;27;20420;-63
2023/12/12 01:16:41;;;;;;;0.70;0.30;;;9.00;1.00;;;;;;5130458;28;20414;-61
2023/12/12 01:19:09;;;;;;;0.82;0.38;;;9.00;1.00;;;;;;5134091;28;20410;-61
2023/12/12 01:21:36;;;;;;;1.83;0.40;;;9.00;1.00;;;;;;5134945;28;20711;-61
2023/12/12 01:24:04;;;;;;;1.60;0.30;;;9.00;1.00;;;;;;5134811;28;20849;-61
2023/12/12 01:26:31;;;;;;;1.00;0.40;;;9.00;1.00;;;;;;5133652;27;20722;-61
2023/12/12 01:28:58;;;;;;;0.80;0.30;;;9.10;1.00;;;;;;5134688;28;20852;-61
2023/12/12 01:31:25;;;;;;;1.90;0.40;;;9.10;1.00;;;;;;5133326;28;20955;-60
2023/12/12 01:33:52;;;;;;;2.10;0.30;;;9.10;1.00;;;;;;5134356;28;20988;-61
2023/12/12 01:36:21;;;;;;;1.27;0.30;;;9.10;1.00;;;;;;5133898;28;20437;-61
2023/12/12 01:38:48;;;;;;;0.98;0.30;;;9.10;1.00;;;;;;5134388;27;20483;-61
2023/12/12 01:41:15;;;;;;;0.65;0.30;;;9.10;1.00;;;;;;5137359;27;20430;-62
2023/12/12 01:43:42;;;;;;;3.00;0.30;;;9.20;1.00;;;;;;5156932;27;20409;-61
2023/12/12 01:46:14;;;;;;;1.30;0.30;;;9.20;1.00;;;;;;5155215;27;20989;-61
2023/12/12 01:48:41;;;;;;;0.90;0.30;;;9.20;1.00;;;;;;5138811;27;20426;-62
2023/12/12 01:51:08;;;;;;;1.20;0.30;;;9.20;1.00;;;;;;5139175;27;20422;-62
2023/12/12 01:53:40;;;;;;;1.23;0.30;;;9.20;1.00;;;;;;5137896;27;20427;-62
2023/12/12 01:56:08;;;;;;;1.20;0.40;;;9.20;1.00;;;;;;5138709;27;20776;-61
2023/12/12 01:58:36;;;;;;;0.50;0.30;;;9.20;1.00;;;;;;5137460;27;20857;-61
2023/12/12 02:01:04;;;;;;;0.90;0.30;;;9.20;1.00;;;;;;5138540;27;20722;-62
2023/12/12 02:03:32;;;;;;;2.10;0.40;;;9.20;1.00;;;;;;5138377;27;20887;-61
2023/12/12 02:06:00;;;;;;;2.50;0.40;;;9.20;1.00;;;;;;5153994;27;20416;-61
2023/12/12 02:08:27;;;;;;;1.02;0.35;;;9.10;1.00;;;;;;5157047;27;20417;-61
2023/12/12 02:10:56;;;;;;;0.80;0.30;;;9.20;1.00;;;;;;5137609;27;20419;-61
2023/12/12 02:13:23;;;;;;;1.60;0.30;;;9.10;1.00;;;;;;5138227;27;20426;-61
2023/12/12 02:15:50;;;;;;;0.88;0.30;;;9.10;1.00;;;;;;5137902;27;20419;-62
2023/12/12 02:18:17;;;;;;;0.77;0.30;;;9.10;1.00;;;;;;5136767;27;20418;-61
2023/12/12 02:20:44;;;;;;;0.60;0.30;;;9.00;1.00;;;;;;5133698;27;20418;-61
2023/12/12 02:23:13;;;;;;;0.90;0.30;;;9.00;1.00;;;;;;5147502;27;20413;-61
2023/12/12 02:25:40;;;;;;;1.70;0.30;;;9.00;1.00;;;;;;5137183;27;20447;-61
2023/12/12 02:28:08;;;;;;;0.70;0.30;;;9.00;1.00;;;;;;5136987;27;20833;-61
2023/12/12 02:30:36;;;;;;;0.60;0.30;;;9.00;1.00;;;;;;5137117;27;20421;-61
2023/12/12 02:33:04;;;;;;;1.20;0.28;;;9.00;1.00;;;;;;5137787;27;20946;-61
2023/12/12 02:35:31;;;;;;;1.20;0.20;;;8.90;1.00;;;;;;5137976;27;20475;-61
2023/12/12 02:37:58;;;;;;;0.95;0.30;;;8.90;1.00;;;;;;5136957;27;20426;-61
2023/12/12 02:40:27;;;;;;;3.00;0.40;;;8.90;6.00;;;;;;5137139;27;20434;-61
2023/12/12 02:42:54;;;;;;;1.30;0.30;;;8.80;12.70;;;;;;5137631;27;20860;-61
2023/12/12 02:45:21;;;;;;;0.63;0.40;;;8.80;15.00;;;;;;5136743;27;20430;-61
2023/12/12 02:47:48;;;;;;;0.70;0.30;;;8.80;18.00;;;;;;5137387;27;20429;-61
2023/12/12 02:50:15;;;;;;;2.00;0.40;;;8.70;18.80;;;;;;5136088;27;20751;-61
2023/12/12 02:52:42;;;;;;;0.90;0.30;;;8.70;21.10;;;;;;5121965;27;20810;-61
2023/12/12 02:55:10;;;;;;;2.10;0.30;;;8.70;22.30;;;;;;5137634;27;20501;-61
2023/12/12 02:57:38;;;;;;;1.30;0.28;;;8.70;23.50;;;;;;5137531;27;20411;-61
2023/12/12 03:00:06;;;;;;;1.43;0.30;;;8.70;27.70;;;;;;5136602;27;20513;-62
2023/12/12 03:02:34;;;;;;;0.50;0.20;;;8.80;23.80;;;;;;5136142;27;20445;-61
2023/12/12 03:05:01;;;;;;;0.98;0.30;;;8.80;19.00;;;;;;5136847;27;20426;-63
2023/12/12 03:07:28;;;;;;;0.57;0.20;;;8.80;18.10;;;;;;5136669;27;20422;-61
2023/12/12 03:09:55;;;;;;;0.60;0.20;;;8.80;16.40;;;;;;5136420;27;20427;-61
2023/12/12 03:12:22;;;;;;;0.70;0.30;;;8.80;20.00;;;;;;5136105;27;20430;-61
2023/12/12 03:14:50;;;;;;;0.60;0.30;;;8.80;20.20;;;;;;5128684;27;20427;-61
2023/12/12 03:17:18;;;;;;;0.60;0.30;;;8.80;17.60;;;;;;5136148;27;20483;-61
2023/12/12 03:19:45;;;;;;;1.13;0.30;;;8.90;9.00;;;;;;5136957;27;20453;-61
2023/12/12 03:22:12;;;;;;;2.20;0.25;;;8.90;1.00;;;;;;5135727;27;20415;-61
2023/12/12 03:24:38;;;;;;;0.70;0.30;;;8.90;1.00;;;;;;5141523;27;20424;-61
2023/12/12 03:27:08;;;;;;;1.40;0.40;;;9.00;1.00;;;;;;5157738;27;20499;-61
2023/12/12 03:29:35;;;;;;;1.10;0.30;;;9.00;1.00;;;;;;5145190;27;20426;-61
2023/12/12 03:32:04;;;;;;;0.80;0.30;;;9.00;1.00;;;;;;5136731;27;20498;-61
2023/12/12 03:34:31;;;;;;;1.15;0.30;;;9.00;1.00;;;;;;5136530;27;20415;-61
2023/12/12 03:36:58;;;;;;;1.50;0.30;;;9.00;1.00;;;;;;5136974;27;20418;-61
2023/12/12 03:39:25;;;;;;;0.40;0.20;;;9.10;1.00;;;;;;5136661;27;20419;-61
2023/12/12 03:41:52;;;;;;;1.02;0.20;;;9.10;1.00;;;;;;5149664;27;20487;-61
2023/12/12 03:44:19;;;;;;;1.20;0.20;;;9.10;1.00;;;;;;5156767;27;20449;-61
2023/12/12 03:46:46;;;;;;;2.10;0.30;;;9.10;1.00;;;;;;5156952;27;20859;-61
2023/12/12 03:49:15;;;;;;;0.50;0.20;;;9.10;1.00;;;;;;5156815;27;20412;-61
2023/12/12 03:51:43;;;;;;;0.47;0.20;;;9.10;1.00;;;;;;5157403;27;20805;-61
2023/12/12 03:54:10;;;;;;;0.75;0.30;;;9.10;1.00;;;;;;5147285;27;20431;-61
2023/12/12 03:56:37;;;;;;;1.00;0.20;;;9.20;1.00;;;;;;5140394;27;20502;-60
2023/12/12 03:59:04;;;;;;;0.70;0.30;;;9.10;1.00;;;;;;5156114;27;20424;-61
2023/12/12 04:01:32;;;;;;;0.60;0.20;;;9.00;1.00;;;;;;5149358;27;20418;-61
2023/12/12 04:03:59;;;;;;;0.40;0.20;;;9.00;1.00;;;;;;5134645;27;20522;-61
2023/12/12 04:06:28;;;;;;;1.50;0.30;;;9.00;1.00;;;;;;5133925;27;20426;-61
2023/12/12 04:08:55;;;;;;;1.05;0.30;;;8.90;1.00;;;;;;5135975;27;20430;-61
2023/12/12 04:11:22;;;;;;;1.40;0.30;;;8.90;1.00;;;;;;5149379;27;20420;-60
2023/12/12 04:13:49;;;;;;;0.50;0.20;;;8.90;1.00;;;;;;5156860;27;20432;-61
2023/12/12 04:16:16;;;;;;;1.10;0.20;;;8.90;1.00;;;;;;5140544;27;20715;-61
2023/12/12 04:18:44;;;;;;;0.70;0.20;;;8.80;1.00;;;;;;5136013;27;20919;-61
2023/12/12 04:21:11;;;;;;;1.38;0.30;;;8.80;1.00;;;;;;5136242;27;20422;-61
2023/12/12 04:23:42;;;;;;;0.50;0.25;;;8.80;1.00;;;;;;5135284;27;20422;-61
2023/12/12 04:26:10;;;;;;;0.70;0.20;;;8.70;1.00;;;;;;5135477;27;20742;-61
2023/12/12 04:28:38;;;;;;;0.80;0.30;;;8.60;1.00;;;;;;5135204;27;20428;-61
2023/12/12 04:31:05;;;;;;;1.08;0.30;;;8.60;1.00;;;;;;5135242;27;21102;-62
2023/12/12 04:33:32;;;;;;;2.40;0.30;;;8.70;1.00;;;;;;5134618;27;20430;-61
2023/12/12 04:36:01;;;;;;;0.70;0.20;;;8.60;1.00;;;;;;5130778;27;20876;-62
2023/12/12 04:38:28;;;;;;;0.40;0.20;;;8.60;1.00;;;;;;5134074;27;20860;-62
2023/12/12 04:40:56;;;;;;;1.40;0.30;;;8.60;1.00;;;;;;5133675;27;21121;-62
2023/12/12 04:43:23;;;;;;;0.43;0.20;;;8.50;1.00;;;;;;5133110;27;20421;-62
2023/12/12 04:45:50;;;;;;;0.60;0.30;;;8.50;1.00;;;;;;5143818;27;20416;-61
2023/12/12 04:48:18;;;;;;;0.70;0.20;;;8.50;1.00;;;;;;5153900;27;20404;-62
2023/12/12 04:50:45;;;;;;;1.00;0.30;;;8.50;1.00;;;;;;5123619;27;20484;-61
2023/12/12 04:53:12;;;;;;;0.70;0.30;;;8.40;1.00;;;;;;5131885;28;20426;-60
2023/12/12 04:55:39;;;;;;;0.50;0.40;;;8.40;1.00;;;;;;5134133;28;20418;-60
2023/12/12 04:58:08;;;;;;;0.60;0.30;;;8.40;1.00;;;;;;5134297;28;20418;-60
2023/12/12 05:00:35;;;;;;;1.00;0.30;;;8.40;1.00;;;;;;5140260;27;20426;-60
2023/12/12 05:03:02;;;;;;;0.70;0.30;;;8.40;1.00;;;;;;5128592;28;20483;-60
2023/12/12 05:05:29;;;;;;;0.50;0.20;;;8.40;1.00;;;;;;5133894;28;20747;-60
2023/12/12 05:07:56;;;;;;;0.50;0.30;;;8.40;1.00;;;;;;5133806;28;20492;-62
2023/12/12 05:10:23;;;;;;;0.70;0.20;;;8.40;1.00;;;;;;5134502;28;20415;-62
2023/12/12 05:12:50;;;;;;;0.60;0.30;;;8.30;1.00;;;;;;5133134;28;20437;-63
2023/12/12 05:15:22;;;;;;;0.60;0.20;;;8.30;1.00;;;;;;5142527;27;20425;-63
2023/12/12 05:17:49;;;;;;;1.10;0.30;;;8.40;1.00;;;;;;5152767;27;20834;-63
2023/12/12 05:20:16;;;;;;;0.50;0.20;;;8.40;1.00;;;;;;5144442;27;20439;-63
2023/12/12 05:22:43;;;;;;;0.50;0.27;;;8.40;1.00;;;;;;5138275;27;20422;-63
2023/12/12 05:25:11;;;;;;;0.60;0.30;;;8.50;1.00;;;;;;5148001;27;20408;-63
2023/12/12 05:27:38;;;;;;;0.60;0.20;;;8.50;1.00;;;;;;5158272;27;20421;-64
2023/12/12 05:30:07;;;;;;;0.50;0.20;;;8.50;1.00;;;;;;5159358;27;20515;-63
2023/12/12 05:32:35;;;;;;;0.40;0.20;;;8.60;1.00;;;;;;5158188;27;20848;-61
2023/12/12 05:35:03;;;;;;;1.70;0.30;;;8.60;1.00;;;;;;5159171;27;20412;-60
2023/12/12 05:37:30;;;;;;;0.50;0.30;;;8.70;1.00;;;;;;5159229;27;20843;-60
2023/12/12 05:39:57;;;;;;;0.60;0.30;;;8.60;1.00;;;;;;5159639;27;20404;-61
2023/12/12 05:42:25;;;;;;;0.40;0.20;;;8.70;1.00;;;;;;5141163;27;20414;-61
2023/12/12 05:44:53;;;;;;;1.00;0.30;;;8.70;1.00;;;;;;5138690;27;20460;-61
2023/12/12 05:47:20;;;;;;;0.73;0.30;;;8.80;1.00;;;;;;5138581;27;20461;-61
2023/12/12 05:49:48;;;;;;;0.80;0.30;;;8.70;1.00;;;;;;5137880;27;20429;-61
2023/12/12 05:52:16;;;;;;;0.60;0.30;;;8.70;1.00;;;;;;5137537;27;20450;-61
2023/12/12 05:54:43;;;;;;;0.50;0.30;;;8.70;1.00;;;;;;5137384;27;20434;-60
2023/12/12 05:57:10;;;;;;;0.40;0.20;;;8.70;1.00;;;;;;5133884;27;20437;-59
2023/12/12 05:59:38;;;;;;;0.40;0.30;;;8.70;1.00;;;;;;5137860;27;20491;-60
2023/12/12 06:02:05;;;;;;;0.63;0.30;;;8.80;1.00;;;;;;5137650;27;20481;-59
2023/12/12 06:04:35;;;;;;;1.00;0.30;;;8.80;1.00;;;;;;5158741;27;20420;-60
2023/12/12 06:07:04;;;;;;;0.80;0.30;;;8.80;1.00;;;;;;5155469;27;20425;-60
2023/12/12 06:09:31;;;;;;;0.47;0.20;;;8.80;1.00;;;;;;5121405;27;20475;-59
2023/12/12 06:12:00;;;;;;;1.10;0.30;;;8.80;1.00;;;;;;5136944;27;20860;-59
2023/12/12 06:14:28;;;;;;;0.40;0.20;;;8.80;1.00;;;;;;5136663;27;20426;-59
2023/12/12 06:16:55;;;;;;;2.30;0.30;;;8.80;1.00;;;;;;5142915;27;20413;-59
2023/12/12 06:19:24;;;;;;;1.40;0.30;;;8.70;1.00;;;;;;5158244;27;20413;-60
2023/12/12 06:21:53;;;;;;;0.53;0.30;;;8.70;1.00;;;;;;5145558;27;20734;-58
2023/12/12 06:24:22;;;;;;;0.70;0.30;;;8.60;1.00;;;;;;5136951;27;20460;-59
2023/12/12 06:26:50;;;;;;;0.80;0.30;;;8.60;1.00;;;;;;5134040;27;20792;-59
2023/12/12 06:29:17;;;;;;;0.40;0.30;;;8.60;1.00;;;;;;5116970;28;20420;-59
2023/12/12 06:31:44;;;;;;;0.50;0.30;;;8.50;1.00;;;;;;5133987;27;20419;-58
2023/12/12 06:34:11;;;;;;;1.17;0.30;;;8.50;1.00;;;;;;5136681;27;20430;-59
2023/12/12 06:36:38;;;;;;;0.50;0.30;;;8.50;1.00;;;;;;5136360;27;20426;-60
2023/12/12 06:39:05;;;;;;;1.30;0.40;;;8.50;1.00;;;;;;5136162;27;20442;-61
2023/12/12 06:41:33;;;;;;;1.20;0.40;;;8.50;1.00;;;;;;5135190;27;20431;-58
2023/12/12 06:44:01;;;;;;;0.90;0.40;;;8.60;1.00;;;;;;5135423;27;20411;-60
2023/12/12 06:46:28;;;;;;;1.08;0.30;;;8.60;1.00;;;;;;5134354;27;20430;-59
2023/12/12 06:48:55;;;;;;;0.90;0.30;;;8.70;1.00;;;;;;5135005;27;20430;-59
2023/12/12 06:51:22;;;;;;;0.70;0.30;;;8.70;1.00;;;;;;5135041;27;20430;-60
2023/12/12 06:53:52;;;;;;;0.60;0.32;;;8.80;1.00;;;;;;5134628;27;20426;-59
2023/12/12 06:56:20;;;;;;;0.55;0.30;;;8.70;1.00;;;;;;5128566;27;20458;-59
2023/12/12 06:58:49;;;;;;;0.82;0.30;;;8.70;1.00;;;;;;5140067;27;20425;-60
2023/12/12 07:01:16;;;;;;;0.60;0.30;;;8.70;1.00;;;;;;5136180;27;20984;-59
2023/12/12 07:03:43;;;;;;;0.70;0.30;;;8.70;1.00;;;;;;5141088;27;20437;-60
2023/12/12 07:06:10;;;;;;;0.90;0.30;;;8.80;1.00;;;;;;5132190;27;20426;-59
2023/12/12 07:08:37;;;;;;;0.73;0.30;;;8.70;1.00;;;;;;5134294;27;20418;-60
2023/12/12 07:11:05;;;;;;;1.00;0.30;;;8.80;1.00;;;;;;5128813;27;20407;-60
2023/12/12 07:13:32;;;;;;;1.27;0.30;;;8.80;1.00;;;;;;5134162;27;20879;-60
2023/12/12 07:16:01;;;;;;;1.30;0.30;;;8.80;1.00;;;;;;5134125;27;20430;-59
2023/12/12 07:18:29;;;;;;;0.50;0.30;;;8.90;1.00;;;;;;5137530;27;20422;-60
2023/12/12 07:20:59;;;;;;;0.55;0.30;;;8.80;1.00;;;;;;5136203;27;20471;-60
2023/12/12 07:23:26;;;;;;;0.70;0.30;;;8.80;1.00;;;;;;5147587;27;21020;-60
2023/12/12 07:25:53;;;;;;;0.80;0.30;;;8.90;1.00;;;;;;5141475;27;20418;-60
2023/12/12 07:28:20;;;;;;;0.77;0.40;;;8.90;1.00;;;;;;5134788;27;20709;-59
2023/12/12 07:30:48;;;;;;;0.90;0.30;;;8.90;1.00;;;;;;5130425;27;20427;-59
2023/12/12 07:33:17;;;;;;;1.20;0.30;;;8.90;1.00;;;;;;5143785;27;20421;-59
2023/12/12 07:35:44;;;;;;;1.30;0.30;;;8.90;1.00;;;;;;5156289;27;20439;-63
2023/12/12 07:38:12;;;;;;;0.77;0.40;;;8.90;1.00;;;;;;5138918;27;20436;-58
2023/12/12 07:40:39;;;;;;;0.90;0.30;;;9.00;1.00;;;;;;5140527;27;20740;-58
2023/12/12 07:43:06;;;;;;;0.85;0.30;;;8.90;1.00;;;;;;5137634;27;20422;-60
2023/12/12 07:45:33;;;;;;;1.42;0.40;;;8.90;1.00;;;;;;5134932;27;20467;-59
2023/12/12 07:48:00;;;;;;;1.85;0.40;;;8.80;1.00;;;;;;5154946;27;20424;-59
2023/12/12 07:50:29;;;;;;;0.60;0.30;;;8.80;1.00;;;;;;5142010;27;20830;-59
2023/12/12 07:52:56;;;;;;;0.50;0.30;;;8.80;1.00;;;;;;5134126;27;20493;-59
2023/12/12 07:55:23;;;;;;;0.90;0.40;;;8.70;1.00;;;;;;5132829;27;20725;-59
2023/12/12 07:57:50;;;;;;;0.90;0.40;;;8.70;1.00;;;;;;5133986;27;20414;-59
2023/12/12 08:00:17;;;;;;;0.60;0.30;;;8.70;1.00;;;;;;5131108;27;20917;-60
2023/12/12 08:02:45;;;;;;;1.10;0.40;;;8.70;1.00;;;;;;5130405;27;20713;-60
2023/12/12 08:05:12;;;;;;;0.60;0.40;;;8.80;1.00;;;;;;5131784;27;21027;-60
2023/12/12 08:07:41;;;;;;;1.40;0.40;;;8.80;1.00;;;;;;5130732;27;20430;-60
2023/12/12 08:10:09;;;;;;;0.55;0.40;;;8.80;1.00;;;;;;5129888;27;20426;-60
2023/12/12 08:12:36;;;;;;;1.60;0.40;;;8.70;1.00;;;;;;5133760;27;20435;-59
2023/12/12 08:15:04;;;;;;;0.60;0.35;;;8.70;1.00;;;;;;5152009;27;20724;-60
2023/12/12 08:17:31;;;;;;;1.00;0.40;;;8.70;1.00;;;;;;5118476;27;20422;-61
2023/12/12 08:19:58;;;;;;;1.65;0.40;;;8.70;1.00;;;;;;5129454;27;20419;-63
2023/12/12 08:22:26;;;;;;;0.70;0.40;;;8.70;1.00;;;;;;5131330;27;20414;-60
2023/12/12 08:24:54;;;;;;;1.30;0.40;;;8.60;9.20;;;;;;5131961;27;20842;-60
2023/12/12 08:27:21;;;;;;;0.90;0.40;;;8.60;21.10;;;;;;5131258;27;20426;-60
2023/12/12 08:29:49;;;;;;;0.63;0.40;;;8.70;9.70;;;;;;5131232;27;20857;-60
2023/12/12 08:32:16;;;;;;;1.52;0.40;;;8.70;11.60;;;;;;5139194;27;20430;-60
2023/12/12 08:34:43;;;;;;;1.70;0.40;;;8.80;8.10;;;;;;5144215;27;20516;-60
2023/12/12 08:37:10;;;;;;;0.70;0.30;;;8.80;1.00;;;;;;5142715;27;20427;-60
2023/12/12 08:39:38;;;;;;;1.13;0.40;;;8.80;1.00;;;;;;5133577;27;20420;-59
2023/12/12 08:42:07;;;;;;;0.70;0.40;;;8.80;1.00;;;;;;5131102;27;20436;-60
2023/12/12 08:44:34;;;;;;;1.27;0.40;;;8.80;1.40;;;;;;5131151;27;20493;-60
2023/12/12 08:47:01;;;;;;;0.80;0.40;;;8.90;1.00;;;;;;5132687;27;20414;-59
2023/12/12 08:49:28;;;;;;;1.10;0.40;;;8.90;2.10;;;;;;5130522;27;20429;-59
2023/12/12 08:51:55;;;;;;;1.20;0.40;;;8.90;6.00;;;;;;5131911;27;20418;-59
2023/12/12 08:54:22;;;;;;;0.70;0.30;;;9.00;8.90;;;;;;5131130;27;20475;-59
2023/12/12 08:56:52;;;;;;;0.70;0.40;;;9.00;1.00;;;;;;5132096;28;20418;-61
2023/12/12 08:59:22;;;;;;;0.70;0.32;;;9.10;2.40;;;;;;5132469;28;20838;-59
2023/12/12 09:01:49;;;;;;;0.88;0.40;;;9.20;1.00;;;;;;5123430;28;20475;-59
2023/12/12 09:04:16;;;;;;;0.90;0.40;;;9.10;1.00;;;;;;5129482;28;20450;-59
2023/12/12 09:06:44;;;;;;;0.70;0.30;;;9.20;1.00;;;;;;5132576;28;20421;-60
2023/12/12 09:09:12;;;;;;;0.93;0.40;;;9.30;10.10;;;;;;5132915;28;20810;-59
2023/12/12 09:11:39;;;;;;;1.50;0.50;;;9.40;1.00;;;;;;5131969;28;20414;-60
2023/12/12 09:14:06;;;;;;;1.08;0.40;;;9.40;1.00;;;;;;5133052;28;20445;-59
2023/12/12 09:16:35;;;;;;;0.90;0.40;;;9.50;1.00;;;;;;5133838;28;20410;-59
2023/12/12 09:19:02;;;;;;;0.70;0.40;;;9.50;1.00;;;;;;5133558;28;20485;-60
2023/12/12 09:21:29;;;;;;;0.85;0.40;;;9.50;1.00;;;;;;5132399;28;20410;-59
2023/12/12 09:23:56;;;;;;;0.70;0.40;;;9.60;1.00;;;;;;5133167;28;20750;-60
2023/12/12 09:26:23;;;;;;;0.90;0.40;;;9.50;1.00;;;;;;5133495;28;20402;-59
2023/12/12 09:28:50;;;;;;;1.30;0.40;;;9.50;1.00;;;;;;5132914;28;20433;-59
2023/12/12 09:31:26;;;;;;;1.05;0.40;;;9.50;1.00;;;;;;5132076;28;20422;-60
2023/12/12 09:33:55;;;;;;;0.95;0.45;;;9.50;1.00;;;;;;5132587;28;20434;-60
2023/12/12 09:36:22;;;;;;;0.85;0.50;;;9.60;1.00;;;;;;5131170;28;20470;-60
2023/12/12 09:38:49;;;;;;;1.00;0.50;;;9.60;1.00;;;;;;5130217;28;20428;-60
2023/12/12 09:41:21;;;;;;;1.35;0.52;;;9.40;1.00;;;;;;5130019;28;20444;-60
2023/12/12 09:43:49;;;;;;;1.17;0.50;;;9.40;1.00;;;;;;5130935;28;20460;-60
2023/12/12 09:46:17;;;;;;;1.20;0.50;;;9.30;1.00;;;;;;5130053;28;21064;-60
2023/12/12 09:48:45;;;;;;;0.80;0.40;;;9.30;16.20;;;;;;5131200;28;20425;-60
2023/12/12 09:51:15;;;;;;;1.27;0.50;;;9.40;16.40;;;;;;5133034;28;20425;-60
2023/12/12 09:53:46;;;;;;;0.90;0.60;;;9.40;15.30;;;;;;5132266;28;20449;-58
2023/12/12 09:56:16;;;;;;;2.45;0.70;;;9.50;4.30;;;;;;5132494;28;20877;-58
2023/12/12 09:58:46;;;;;;;1.27;0.60;;;9.40;13.00;;;;;;5133374;28;20876;-61
2023/12/12 10:01:14;;;;;;;1.30;0.55;;;9.20;31.10;;;;;;5133489;27;20418;-60
2023/12/12 10:03:42;;;;;;;1.90;0.50;;;9.20;48.80;;;;;;5135469;27;20694;-60
2023/12/12 10:06:11;;;;;;;0.80;0.40;;;9.20;77.90;;;;;;5135309;27;20421;-60
2023/12/12 10:08:40;;;;;;;0.73;0.43;;;9.10;98.70;;;;;;5135275;27;20406;-60
2023/12/12 10:11:09;;;;;;;0.90;0.40;;;9.10;99.90;;;;;;5135786;27;20417;-60
2023/12/12 10:13:54;;;;;;;1.70;0.60;;;9.10;99.90;;;;;;5136845;27;20486;-60
2023/12/12 10:16:21;;;;;;;0.80;0.50;;;9.20;99.90;;;;;;5137030;27;20500;-60
2023/12/12 10:18:50;;;;;;;1.08;0.50;;;9.20;99.90;;;;;;5135083;27;20860;-60
2023/12/12 10:21:18;;;;;;;0.70;0.50;;;9.20;99.90;;;;;;5134813;27;20601;-59
2023/12/12 10:23:48;;;;;;;1.10;0.50;;;9.20;99.90;;;;;;5135527;27;20421;-59
2023/12/12 10:26:15;;;;;;;1.65;0.50;;;9.10;99.90;;;;;;5136182;27;20418;-59
2023/12/12 10:28:42;;;;;;;0.93;0.40;;;9.10;99.90;;;;;;5136694;27;20426;-59
2023/12/12 10:31:11;;;;;;;0.80;0.40;;;9.10;99.90;;;;;;5136423;27;21014;-59
2023/12/12 10:33:39;;;;;;;1.52;0.40;;;9.30;99.90;;;;;;5136364;27;20427;-59
2023/12/12 10:36:10;;;;;;;0.80;0.40;;;9.30;99.90;;;;;;5136585;27;20431;-59
2023/12/12 10:38:38;;;;;;;0.70;0.30;;;9.20;99.90;;;;;;5136373;27;20410;-60
2023/12/12 10:41:14;;;;;;;0.60;0.30;;;9.20;99.90;;;;;;5135781;27;20450;-60
2023/12/12 10:43:43;;;;;;;0.60;0.30;;;9.30;99.90;;;;;;5136087;27;20907;-59
2023/12/12 10:46:12;;;;;;;0.60;0.30;;;9.30;99.90;;;;;;5128335;27;20432;-59
2023/12/12 10:48:44;;;;;;;0.60;0.40;;;9.20;99.90;;;;;;5124023;27;20442;-60
2023/12/12 10:51:12;;;;;;;0.50;0.30;;;9.20;99.90;;;;;;5134548;27;20861;-59
2023/12/12 10:53:41;;;;;;;1.23;0.30;;;9.10;99.90;;;;;;5133175;27;20457;-60
2023/12/12 10:56:09;;;;;;;0.60;0.40;;;9.00;99.90;;;;;;5134999;27;20432;-60
2023/12/12 10:58:40;;;;;;;1.50;0.40;;;9.20;99.90;;;;;;5136666;27;20425;-58
2023/12/12 11:01:09;;;;;;;0.60;0.38;;;9.30;99.90;;;;;;5136822;27;20422;-59
2023/12/12 11:03:36;;;;;;;1.70;0.30;;;9.40;99.90;;;;;;5136534;27;20421;-60
2023/12/12 11:06:05;;;;;;;1.92;0.30;;;9.40;99.90;;;;;;5135225;27;20419;-59
2023/12/12 11:08:33;;;;;;;0.98;0.32;;;9.50;99.90;;;;;;5133015;27;20414;-59
2023/12/12 11:11:02;;;;;;;1.00;0.50;;;9.50;99.90;;;;;;5132687;27;20421;-60
2023/12/12 11:13:33;;;;;;;0.60;0.30;;;9.50;99.90;;;;;;5132248;27;20506;-60
2023/12/12 11:16:04;;;;;;;0.60;0.30;;;9.50;99.90;;;;;;5110989;28;20428;-60
2023/12/12 11:18:32;;;;;;;0.60;0.30;;;9.60;99.90;;;;;;5133199;27;20426;-59
2023/12/12 11:21:00;;;;;;;0.50;0.30;;;9.60;99.90;;;;;;5132821;27;20422;-58
2023/12/12 11:23:54;;;;;;;0.80;0.40;;;9.70;99.90;;;;;;5132763;27;20406;-59
2023/12/12 11:26:24;;;;;;;0.60;0.30;;;9.70;99.90;;;;;;5129650;27;20407;-59
2023/12/12 11:28:51;;;;;;;0.60;0.30;;;9.70;99.90;;;;;;5133679;27;20819;-62
2023/12/12 11:31:26;;;;;;;0.50;0.30;;;9.70;99.90;;;;;;5133642;27;20850;-62
2023/12/12 11:34:07;;;;;;;0.70;0.40;;;9.80;99.90;;;;;;5135421;27;20418;-62
2023/12/12 11:36:54;;;;;;;0.70;0.30;;;9.80;99.90;;;;;;5134580;27;20434;-59
2023/12/12 11:39:49;;;;;;;0.70;0.40;;;9.80;99.90;;;;;;5133873;27;20419;-60
2023/12/12 11:42:20;;;;;;;1.20;0.50;;;9.90;99.90;;;;;;5134081;27;20471;-60
2023/12/12 11:44:49;;;;;;;0.73;0.43;;;9.90;99.90;;;;;;5153851;27;20489;-63
2023/12/12 11:47:23;;;;;;;0.98;0.40;;;9.90;99.90;;;;;;5154028;27;20673;-62
2023/12/12 11:49:50;;;;;;;0.87;0.40;;;9.90;99.90;;;;;;5146556;27;20696;-63
2023/12/12 11:52:48;;;;;;;1.23;0.40;;;10.00;99.90;;;;;;5148966;27;21024;-63
2023/12/12 11:55:19;;;;;;;0.90;0.40;;;10.00;99.90;;;;;;5135488;27;20426;-63
2023/12/12 11:57:47;;;;;;;0.80;0.30;;;10.10;99.90;;;;;;5130499;27;20486;-62
2023/12/12 12:00:15;;;;;;;0.50;0.30;;;10.20;99.90;;;;;;5127553;27;20433;-61
2023/12/12 12:02:44;;;;;;;0.60;0.30;;;10.20;99.90;;;;;;5134512;27;20735;-61
2023/12/12 12:05:12;;;;;;;0.60;0.30;;;10.30;99.90;;;;;;5134134;27;20412;-61
2023/12/12 12:07:39;;;;;;;0.75;0.20;;;10.30;99.90;;;;;;5134782;27;20760;-61
2023/12/12 12:10:07;;;;;;;0.50;0.30;;;10.30;99.90;;;;;;5132986;27;20699;-61
2023/12/12 12:12:34;;;;;;;0.90;0.30;;;10.30;99.90;;;;;;5121710;27;20447;-61
2023/12/12 12:15:03;;;;;;;0.70;0.40;;;10.30;99.90;;;;;;5129202;27;20431;-60
2023/12/12 12:17:34;;;;;;;0.60;0.30;;;10.30;99.90;;;;;;5133156;27;20417;-60
2023/12/12 12:20:04;;;;;;;0.88;0.30;;;10.30;99.90;;;;;;5129492;27;20503;-60
2023/12/12 12:22:31;;;;;;;1.00;0.30;;;10.30;99.90;;;;;;5133077;27;20424;-61
2023/12/12 12:24:58;;;;;;;0.50;0.30;;;10.30;99.90;;;;;;5133333;27;20414;-61
2023/12/12 12:27:25;;;;;;;0.60;0.30;;;10.30;99.90;;;;;;5134089;27;20415;-61
2023/12/12 12:30:00;;;;;;;1.33;0.30;;;10.40;99.90;;;;;;5134379;27;20422;-62
2023/12/12 12:32:27;;;;;;;0.70;0.20;;;10.40;99.90;;;;;;5132571;27;20471;-61
2023/12/12 12:35:07;;;;;;;0.65;0.30;;;10.40;99.90;;;;;;5132749;27;20421;-62
2023/12/12 12:37:36;;;;;;;1.40;0.40;;;10.40;99.90;;;;;;5125911;27;20424;-62
2023/12/12 12:40:05;;;;;;;0.40;0.20;;;10.40;99.90;;;;;;5132442;27;20425;-61
2023/12/12 12:42:34;;;;;;;0.60;0.30;;;10.30;99.90;;;;;;5135941;27;20454;-62
2023/12/12 12:45:04;;;;;;;2.00;0.50;;;10.20;99.90;;;;;;5130915;27;20504;-63
2023/12/12 12:47:31;;;;;;;1.80;0.50;;;10.20;99.90;;;;;;5133453;27;20796;-63
2023/12/12 12:49:59;;;;;;;0.65;0.30;;;10.20;99.90;;;;;;5133587;27;20482;-63
2023/12/12 12:52:27;;;;;;;0.60;0.30;;;10.20;99.90;;;;;;5126205;28;20484;-63
2023/12/12 12:54:54;;;;;;;0.60;0.30;;;10.20;99.90;;;;;;5130862;28;20484;-63
2023/12/12 12:57:22;;;;;;;0.50;0.30;;;10.20;99.90;;;;;;5133396;27;20418;-63
2023/12/12 12:59:49;;;;;;;0.70;0.40;;;10.30;99.90;;;;;;5132712;28;20426;-63
2023/12/12 13:02:16;;;;;;;0.60;0.30;;;10.30;99.90;;;;;;5133332;28;21091;-63
2023/12/12 13:04:43;;;;;;;0.50;0.30;;;10.30;99.90;;;;;;5131764;28;20426;-64
2023/12/12 13:07:10;;;;;;;0.90;0.30;;;10.30;99.90;;;;;;5148420;27;20413;-64